This is the latest recevied weather packets stored in our database for station/object S57ZT-10. If no packets are shown the sender has not sent any weather packets the latest 10 day(s).
| Time | Temp. | Humidity | Pressure | Rain* | Wind** | Luminosity | Snow |
|---|---|---|---|---|---|---|---|
| 1777514470 | 8.89° C | 41% | 1030 hPa | - | - | - | - |
| 1777513662 | 8.89° C | 41% | 1030 hPa | - | - | - | - |
| 1777511882 | 8.89° C | 42% | 1030 hPa | - | - | - | - |
| 1777511766 | 8.89° C | 42% | 1030 hPa | - | - | - | - |
| 1777510859 | 9.44° C | 43% | 1029.9 hPa | - | - | - | - |
| 1777509069 | 9.44° C | 45% | 1029.8 hPa | - | - | - | - |
| 1777508166 | 9.44° C | 46% | 1029.7 hPa | - | - | - | - |
| 1777507259 | 9.44° C | 46% | 1029.5 hPa | - | - | - | - |
| 1777493757 | 11.11° C | 52% | 1026.5 hPa | - | - | - | - |
| 1777491963 | 11.11° C | 52% | 1026.3 hPa | - | - | - | - |
| 1777486564 | 12.78° C | 52% | 1024.9 hPa | - | - | - | - |
| 1777483000 | 13.89° C | 55% | 1024.4 hPa | - | - | - | - |
| 1777480325 | 13.89° C | 55% | 1024.4 hPa | - | - | - | - |
| 1777480258 | 13.89° C | 55% | 1024.4 hPa | - | - | - | - |
| 1777479445 | 13.89° C | 55% | 1024.6 hPa | - | - | - | - |
| 1777479408 | 13.89° C | 55% | 1024.6 hPa | - | - | - | - |
| 1777478459 | 13.89° C | 55% | 1024.7 hPa | - | - | - | - |
| 1777476706 | 13.89° C | 53% | 1024.8 hPa | - | - | - | - |
| 1777469523 | 15° C | 45% | 1025.4 hPa | - | - | - | - |
| 1777467491 | 16.67° C | 31% | 1024.7 hPa | - | - | - | - |
| 1777458671 | 17.22° C | 34% | 1024.7 hPa | - | - | - | - |
| 1777458635 | 17.22° C | 34% | 1024.7 hPa | - | - | - | - |
| 1777451521 | 18.89° C | 32% | 1024.4 hPa | - | - | - | - |
| 1777451456 | 18.89° C | 32% | 1024.4 hPa | - | - | - | - |
| 1777450555 | 19.44° C | 34% | 1024.3 hPa | - | - | - | - |
* Rain since midnight (hover to see other rain measurements)
** Current wind speed in m/s (hover to see current wind gust speed)